Time;durP1;ratioP1;P1;durP2;ratioP2;P2;SDS_P1;SDS_P2;PMS_P1;PMS_P2;Temp;Humidity;BMP_temperature;BMP_pressure;BME280_temperature;BME280_humidity;BME280_pressure;Samples;Min_cycle;Max_cycle;Signal;HPM_P1;HPM_P2
2023/12/27 00:01:07;;;;;;;;;;;;;;;8.85;63.79;99453.78;4396679;32;34253;-88
2023/12/27 00:03:35;;;;;;;;;;;;;;;8.84;63.85;99452.94;4402976;32;34460;-88
2023/12/27 00:06:03;;;;;;;;;;;;;;;9.02;63.17;99457.66;4405477;32;34356;-87
2023/12/27 00:08:30;;;;;;;;;;;;;;;9.34;61.87;99435.09;4405285;32;35353;-87
2023/12/27 00:10:57;;;;;;;;;;;;;;;8.89;62.98;99447.84;4405752;32;33061;-89
2023/12/27 00:13:25;;;;;;;;;;;;;;;8.62;64.22;99456.69;4405337;32;34634;-88
2023/12/27 00:15:52;;;;;;;;;;;;;;;8.47;64.78;99451.13;4405608;32;33845;-89
2023/12/27 00:18:19;;;;;;;;;;;;;;;8.52;64.86;99452.13;4404789;32;34229;-88
2023/12/27 00:20:47;;;;;;;;;;;;;;;9.02;63.06;99457.66;4415928;32;33345;-88
2023/12/27 00:23:15;;;;;;;;;;;;;;;8.58;64.34;99465.19;4397797;32;33912;-89
2023/12/27 00:25:42;;;;;;;;;;;;;;;8.95;63.25;99466.13;4391222;32;34765;-91
2023/12/27 00:28:10;;;;;;;;;;;;;;;8.62;64.35;99467.03;4400327;32;34084;-90
2023/12/27 00:30:37;;;;;;;;;;;;;;;8.66;64.69;99458.50;4400866;32;33300;-90
2023/12/27 00:33:04;;;;;;;;;;;;;;;8.75;64.49;99473.38;4399797;32;34108;-90
2023/12/27 00:35:32;;;;;;;;;;;;;;;8.78;64.52;99470.84;4392959;32;35258;-89
2023/12/27 00:37:59;;;;;;;;;;;;;;;9.02;63.29;99483.53;4393759;32;34749;-89
2023/12/27 00:40:27;;;;;;;;;;;;;;;8.89;63.72;99486.66;4401239;32;33710;-89
2023/12/27 00:42:54;;;;;;;;;;;;;;;8.99;63.51;99488.63;4404567;32;34072;-88
2023/12/27 00:45:22;;;;;;;;;;;;;;;8.86;63.59;99486.56;4405303;32;35316;-89
2023/12/27 00:47:50;;;;;;;;;;;;;;;8.94;63.13;99491.09;4417971;32;34888;-91
2023/12/27 00:50:18;;;;;;;;;;;;;;;9.00;62.70;99483.47;4405127;32;33976;-89
2023/12/27 00:52:46;;;;;;;;;;;;;;;8.57;63.82;99494.47;4420233;32;34502;-88
2023/12/27 00:55:15;;;;;;;;;;;;;;;8.71;63.50;99492.22;4415897;32;33406;-88
2023/12/27 00:57:42;;;;;;;;;;;;;;;8.61;63.72;99501.47;4396584;32;33250;-87
2023/12/27 01:00:09;;;;;;;;;;;;;;;8.46;64.42;99507.09;4398196;32;33373;-87
2023/12/27 01:02:37;;;;;;;;;;;;;;;8.96;62.86;99509.22;4404576;32;34788;-88
2023/12/27 01:05:04;;;;;;;;;;;;;;;8.75;63.00;99515.63;4403346;32;33247;-90
2023/12/27 01:07:32;;;;;;;;;;;;;;;8.83;62.64;99514.94;4403553;32;34198;-86
2023/12/27 01:09:59;;;;;;;;;;;;;;;8.48;63.81;99520.06;4404473;32;32622;-89
2023/12/27 01:12:26;;;;;;;;;;;;;;;8.68;63.01;99525.78;4403868;32;34190;-88
2023/12/27 01:14:54;;;;;;;;;;;;;;;8.63;63.31;99530.78;4405096;32;34560;-87
2023/12/27 01:17:21;;;;;;;;;;;;;;;8.58;62.99;99534.97;4403000;32;32887;-88
2023/12/27 01:19:48;;;;;;;;;;;;;;;8.60;62.86;99541.06;4404436;32;33051;-88
2023/12/27 01:22:16;;;;;;;;;;;;;;;8.97;61.71;99542.88;4415683;32;34927;-86
2023/12/27 01:24:45;;;;;;;;;;;;;;;8.41;62.89;99544.88;4409394;32;33932;-85
2023/12/27 01:27:13;;;;;;;;;;;;;;;8.62;62.33;99546.28;4415623;32;34145;-91
2023/12/27 01:29:40;;;;;;;;;;;;;;;8.70;61.88;99543.03;4388804;32;33971;-86
2023/12/27 01:32:08;;;;;;;;;;;;;;;8.77;61.51;99562.19;4402445;32;34473;-88
2023/12/27 01:34:36;;;;;;;;;;;;;;;8.75;61.92;99567.31;4391142;32;33945;-85
2023/12/27 01:37:04;;;;;;;;;;;;;;;8.68;62.08;99575.75;4398016;32;34829;-87
2023/12/27 01:39:32;;;;;;;;;;;;;;;8.85;61.58;99570.12;4405175;32;33459;-87
2023/12/27 01:42:00;;;;;;;;;;;;;;;8.76;61.60;99565.63;4417919;32;33380;-90
2023/12/27 01:44:28;;;;;;;;;;;;;;;8.84;61.33;99553.75;4398797;32;34147;-87
2023/12/27 01:46:56;;;;;;;;;;;;;;;8.90;61.34;99545.28;4398334;32;34865;-87
2023/12/27 01:49:23;;;;;;;;;;;;;;;8.91;60.75;99554.78;4418674;32;32892;-87
2023/12/27 01:51:51;;;;;;;;;;;;;;;9.02;61.04;99562.00;4396003;32;33591;-89
2023/12/27 01:54:21;;;;;;;;;;;;;;;8.55;62.29;99557.28;4414808;32;33253;-89
2023/12/27 01:56:51;;;;;;;;;;;;;;;8.46;62.77;99569.13;4398394;32;33923;-88
2023/12/27 01:59:18;;;;;;;;;;;;;;;8.85;61.49;99559.78;4394911;32;33780;-87
2023/12/27 02:01:46;;;;;;;;;;;;;;;8.72;61.85;99562.06;4419273;32;34122;-92
2023/12/27 02:04:13;;;;;;;;;;;;;;;8.97;60.77;99565.28;4398424;32;34817;-87
2023/12/27 02:06:41;;;;;;;;;;;;;;;9.04;60.55;99569.78;4397371;32;34674;-88
2023/12/27 02:09:08;;;;;;;;;;;;;;;8.84;61.02;99555.47;4402893;32;34017;-87
2023/12/27 02:11:36;;;;;;;;;;;;;;;8.82;61.20;99551.97;4395271;32;33436;-87
2023/12/27 02:14:05;;;;;;;;;;;;;;;8.89;61.32;99559.03;4395681;32;34483;-89
2023/12/27 02:16:33;;;;;;;;;;;;;;;9.04;60.40;99571.50;4392362;32;34177;-88
2023/12/27 02:19:01;;;;;;;;;;;;;;;8.32;62.59;99569.53;4404216;32;32527;-87
2023/12/27 02:21:29;;;;;;;;;;;;;;;8.51;62.04;99575.28;4404278;32;34127;-87
2023/12/27 02:23:58;;;;;;;;;;;;;;;8.67;61.70;99593.78;4417823;32;33557;-90
2023/12/27 02:26:25;;;;;;;;;;;;;;;8.80;61.30;99585.53;4414173;32;33516;-89
2023/12/27 02:28:52;;;;;;;;;;;;;;;8.71;61.18;99585.28;4417480;32;33517;-87
2023/12/27 02:31:19;;;;;;;;;;;;;;;8.76;61.15;99584.56;4417109;32;34858;-89
2023/12/27 02:33:47;;;;;;;;;;;;;;;8.50;61.60;99590.75;4404355;32;33290;-89
2023/12/27 02:36:15;;;;;;;;;;;;;;;8.31;62.22;99596.19;4402577;32;34835;-87
2023/12/27 02:38:42;;;;;;;;;;;;;;;9.16;59.85;99585.59;4405956;32;32896;-88
2023/12/27 02:41:09;;;;;;;;;;;;;;;9.08;59.56;99591.41;4405465;32;34394;-89
2023/12/27 02:43:37;;;;;;;;;;;;;;;8.99;59.64;99580.00;4392651;32;34028;-87
2023/12/27 02:46:04;;;;;;;;;;;;;;;9.20;58.78;99591.72;4409831;32;34358;-88
2023/12/27 02:48:31;;;;;;;;;;;;;;;9.03;58.99;99586.12;4405969;32;32812;-87
2023/12/27 02:50:59;;;;;;;;;;;;;;;8.50;60.33;99595.91;4400935;32;33775;-88
2023/12/27 02:53:26;;;;;;;;;;;;;;;8.69;60.34;99594.72;4404900;32;35248;-87
2023/12/27 02:55:53;;;;;;;;;;;;;;;8.72;60.20;99587.06;4396832;32;33848;-88
2023/12/27 02:58:21;;;;;;;;;;;;;;;8.95;59.10;99591.09;4416945;32;33096;-87
2023/12/27 03:00:48;;;;;;;;;;;;;;;9.30;58.02;99603.19;4398681;32;34421;-87
2023/12/27 03:03:17;;;;;;;;;;;;;;;9.19;58.53;99601.19;4395266;32;33073;-88
2023/12/27 03:05:45;;;;;;;;;;;;;;;9.29;58.47;99604.91;4397890;32;34920;-87
2023/12/27 03:08:12;;;;;;;;;;;;;;;8.98;58.86;99605.84;4397841;32;34239;-86
2023/12/27 03:10:39;;;;;;;;;;;;;;;9.24;58.24;99607.38;4399073;32;34044;-86
2023/12/27 03:13:07;;;;;;;;;;;;;;;9.04;58.92;99610.28;4400156;32;35174;-86
2023/12/27 03:15:34;;;;;;;;;;;;;;;8.82;59.27;99614.88;4399865;32;35246;-86
2023/12/27 03:18:04;;;;;;;;;;;;;;;9.04;58.69;99616.31;4398797;32;33699;-87
2023/12/27 03:20:32;;;;;;;;;;;;;;;8.97;58.74;99619.59;4400905;32;34994;-86
2023/12/27 03:23:02;;;;;;;;;;;;;;;8.63;59.82;99623.84;4391658;32;34206;-88
2023/12/27 03:25:29;;;;;;;;;;;;;;;8.50;60.19;99632.97;4400084;32;34590;-86
2023/12/27 03:27:59;;;;;;;;;;;;;;;8.59;60.03;99634.94;4396318;32;33471;-85
2023/12/27 03:30:27;;;;;;;;;;;;;;;8.67;59.54;99640.31;4392311;32;34188;-86
2023/12/27 03:32:54;;;;;;;;;;;;;;;8.65;59.59;99634.25;4409472;32;35052;-88
2023/12/27 03:35:22;;;;;;;;;;;;;;;8.43;60.14;99645.66;4393671;32;34957;-87
2023/12/27 03:37:49;;;;;;;;;;;;;;;8.51;59.74;99637.28;4404353;32;33374;-89
2023/12/27 03:40:17;;;;;;;;;;;;;;;7.82;61.80;99638.62;4405340;32;34895;-89
2023/12/27 03:42:45;;;;;;;;;;;;;;;8.51;59.69;99639.00;4405161;32;34431;-88
2023/12/27 03:45:12;;;;;;;;;;;;;;;8.17;60.80;99645.72;4412818;32;34723;-89
2023/12/27 03:47:39;;;;;;;;;;;;;;;8.22;60.27;99641.59;4395763;32;32251;-87
2023/12/27 03:50:08;;;;;;;;;;;;;;;8.35;59.88;99649.72;4394957;32;34770;-89
2023/12/27 03:52:35;;;;;;;;;;;;;;;8.07;60.12;99651.47;4399928;32;34412;-86
2023/12/27 03:55:03;;;;;;;;;;;;;;;8.24;60.20;99654.56;4399371;32;33821;-86
2023/12/27 03:57:30;;;;;;;;;;;;;;;7.63;61.76;99663.84;4405974;32;33827;-86
2023/12/27 03:59:57;;;;;;;;;;;;;;;8.26;60.01;99664.09;4418790;32;34877;-87
2023/12/27 04:02:25;;;;;;;;;;;;;;;8.28;59.70;99667.59;4413390;32;34877;-88
2023/12/27 04:04:52;;;;;;;;;;;;;;;8.48;58.98;99665.63;4398768;32;34060;-86
2023/12/27 04:07:23;;;;;;;;;;;;;;;8.48;58.74;99664.75;4398116;32;33429;-87
2023/12/27 04:09:54;;;;;;;;;;;;;;;8.36;58.97;99669.53;4399140;32;34777;-86
2023/12/27 04:12:25;;;;;;;;;;;;;;;8.07;59.87;99666.97;4395402;32;33848;-85
2023/12/27 04:14:52;;;;;;;;;;;;;;;8.20;59.54;99665.63;4416767;32;34582;-87
2023/12/27 04:17:22;;;;;;;;;;;;;;;7.83;60.38;99663.59;4416081;32;33450;-86
2023/12/27 04:19:53;;;;;;;;;;;;;;;8.15;59.29;99665.50;4414250;32;32837;-86
2023/12/27 04:22:21;;;;;;;;;;;;;;;8.12;59.61;99664.53;4403425;32;33768;-86
2023/12/27 04:24:48;;;;;;;;;;;;;;;7.94;60.13;99672.56;4415484;32;34043;-86
2023/12/27 04:27:16;;;;;;;;;;;;;;;7.70;60.75;99676.13;4395141;32;33072;-87
2023/12/27 04:29:46;;;;;;;;;;;;;;;7.95;59.75;99672.59;4415250;32;34166;-87
2023/12/27 04:32:13;;;;;;;;;;;;;;;7.96;59.87;99676.09;4399481;32;34731;-88
2023/12/27 04:34:40;;;;;;;;;;;;;;;7.34;61.00;99683.53;4391697;32;33543;-88
2023/12/27 04:37:08;;;;;;;;;;;;;;;6.98;62.53;99681.44;4395234;32;33370;-88
2023/12/27 04:39:35;;;;;;;;;;;;;;;7.14;62.14;99680.25;4395483;32;34514;-89
2023/12/27 04:42:03;;;;;;;;;;;;;;;7.20;61.75;99677.91;4393847;32;34115;-89
2023/12/27 04:44:30;;;;;;;;;;;;;;;7.42;61.55;99678.63;4392100;32;35630;-88
2023/12/27 04:46:58;;;;;;;;;;;;;;;7.53;61.05;99682.44;4391239;32;32371;-87
2023/12/27 04:49:25;;;;;;;;;;;;;;;7.49;61.31;99696.06;4391114;32;34943;-88
2023/12/27 04:51:53;;;;;;;;;;;;;;;7.14;62.69;99703.47;4391859;32;35264;-88
2023/12/27 04:54:20;;;;;;;;;;;;;;;7.28;62.18;99704.84;4391319;32;35272;-87
2023/12/27 04:56:48;;;;;;;;;;;;;;;7.38;62.14;99715.44;4394851;32;34285;-87
2023/12/27 04:59:15;;;;;;;;;;;;;;;7.85;60.15;99701.56;4395061;32;34509;-88
2023/12/27 05:01:42;;;;;;;;;;;;;;;7.93;59.77;99705.25;4389792;32;33957;-88
2023/12/27 05:04:10;;;;;;;;;;;;;;;7.61;60.75;99717.09;4391483;32;34220;-89
2023/12/27 05:06:37;;;;;;;;;;;;;;;7.49;60.87;99721.84;4405207;32;33717;-86
2023/12/27 05:09:05;;;;;;;;;;;;;;;7.62;60.06;99728.31;4404576;32;34125;-88
2023/12/27 05:11:32;;;;;;;;;;;;;;;7.48;60.55;99722.69;4404196;32;34335;-88
2023/12/27 05:13:59;;;;;;;;;;;;;;;6.96;61.97;99728.59;4415946;32;34604;-89
2023/12/27 05:16:27;;;;;;;;;;;;;;;6.82;63.10;99744.44;4407058;32;33426;-88
2023/12/27 05:18:54;;;;;;;;;;;;;;;7.18;62.24;99741.44;4406342;32;34094;-89
2023/12/27 05:21:21;;;;;;;;;;;;;;;7.17;62.57;99741.37;4406351;32;34377;-90
2023/12/27 05:23:49;;;;;;;;;;;;;;;7.54;61.06;99746.12;4405304;32;33066;-90
2023/12/27 05:26:16;;;;;;;;;;;;;;;7.39;61.16;99741.31;4406861;32;33317;-89
2023/12/27 05:28:43;;;;;;;;;;;;;;;7.31;61.86;99743.63;4406632;32;34059;-88
2023/12/27 05:31:11;;;;;;;;;;;;;;;7.26;62.08;99744.28;4405656;32;35164;-90
2023/12/27 05:33:39;;;;;;;;;;;;;;;7.45;61.75;99750.94;4402035;32;34142;-88
2023/12/27 05:36:07;;;;;;;;;;;;;;;7.69;60.55;99750.91;4393153;32;33389;-87
2023/12/27 05:38:34;;;;;;;;;;;;;;;7.54;60.81;99746.12;4392086;32;35013;-88
2023/12/27 05:41:03;;;;;;;;;;;;;;;7.34;61.61;99750.56;4390575;32;32780;-88
2023/12/27 05:43:30;;;;;;;;;;;;;;;7.07;62.65;99763.38;4396455;32;33830;-87
2023/12/27 05:45:58;;;;;;;;;;;;;;;7.48;61.30;99766.53;4401154;32;33549;-88
2023/12/27 05:48:28;;;;;;;;;;;;;;;7.26;61.86;99758.03;4391801;32;33786;-87
2023/12/27 05:50:55;;;;;;;;;;;;;;;7.24;61.89;99774.31;4393938;32;33058;-88
2023/12/27 05:53:23;;;;;;;;;;;;;;;6.87;62.65;99764.34;4392362;32;34024;-88
2023/12/27 05:55:50;;;;;;;;;;;;;;;7.00;62.76;99777.72;4393909;32;32938;-88
2023/12/27 05:58:17;;;;;;;;;;;;;;;7.08;62.34;99783.16;4395494;32;35958;-87
2023/12/27 06:00:44;;;;;;;;;;;;;;;7.01;62.66;99788.94;4393271;32;34366;-87
2023/12/27 06:03:12;;;;;;;;;;;;;;;6.90;62.93;99788.53;4392765;32;33208;-86
2023/12/27 06:05:40;;;;;;;;;;;;;;;6.70;64.15;99790.34;4396278;32;31977;-88
2023/12/27 06:08:07;;;;;;;;;;;;;;;7.17;62.74;99791.25;4395103;32;34010;-88
2023/12/27 06:10:36;;;;;;;;;;;;;;;7.10;62.32;99785.81;4405643;32;33825;-89
2023/12/27 06:13:03;;;;;;;;;;;;;;;7.17;62.42;99796.41;4406497;32;33749;-89
2023/12/27 06:15:30;;;;;;;;;;;;;;;6.82;62.76;99797.69;4405044;32;32240;-89
2023/12/27 06:17:58;;;;;;;;;;;;;;;6.69;63.25;99806.62;4406425;32;33766;-88
2023/12/27 06:20:26;;;;;;;;;;;;;;;6.97;62.28;99812.84;4380476;32;33397;-87
2023/12/27 06:22:53;;;;;;;;;;;;;;;6.86;62.48;99803.81;4395075;32;34459;-87
2023/12/27 06:25:20;;;;;;;;;;;;;;;6.89;62.20;99812.53;4392040;32;32749;-88
2023/12/27 06:27:48;;;;;;;;;;;;;;;6.76;62.76;99824.09;4395602;32;34172;-88
2023/12/27 06:30:15;;;;;;;;;;;;;;;6.80;62.88;99825.09;4392659;32;34451;-87
2023/12/27 06:32:43;;;;;;;;;;;;;;;6.83;62.90;99822.62;4392800;32;34402;-87
2023/12/27 06:35:10;;;;;;;;;;;;;;;6.98;62.33;99825.78;4393600;32;34833;-87
2023/12/27 06:37:37;;;;;;;;;;;;;;;6.82;62.47;99834.66;4391933;32;32328;-87
2023/12/27 06:40:08;;;;;;;;;;;;;;;7.12;61.58;99848.63;4391486;32;34425;-88
2023/12/27 06:42:35;;;;;;;;;;;;;;;6.82;62.35;99850.13;4393095;32;34029;-88
2023/12/27 06:45:03;;;;;;;;;;;;;;;6.65;62.63;99856.28;4396627;32;32975;-87
2023/12/27 06:47:31;;;;;;;;;;;;;;;6.82;62.27;99863.00;4402645;32;33171;-88
2023/12/27 06:49:58;;;;;;;;;;;;;;;6.89;61.83;99876.09;4416284;32;33559;-89
2023/12/27 06:52:25;;;;;;;;;;;;;;;6.85;62.35;99885.41;4398130;32;33653;-90
2023/12/27 06:54:53;;;;;;;;;;;;;;;6.63;62.82;99875.09;4397628;32;33269;-87
2023/12/27 06:57:20;;;;;;;;;;;;;;;6.95;62.22;99891.81;4413028;32;34915;-88
2023/12/27 06:59:47;;;;;;;;;;;;;;;6.79;63.66;99891.22;4404093;32;35108;-87
2023/12/27 07:02:14;;;;;;;;;;;;;;;6.32;64.84;99900.47;4403633;32;34175;-89
2023/12/27 07:04:43;;;;;;;;;;;;;;;6.38;64.52;99905.00;4405203;32;34060;-89
2023/12/27 07:07:10;;;;;;;;;;;;;;;6.11;65.94;99902.19;4404497;32;34126;-89
2023/12/27 07:09:38;;;;;;;;;;;;;;;6.14;65.91;99910.03;4398971;32;33989;-89
2023/12/27 07:12:05;;;;;;;;;;;;;;;6.37;65.18;99904.97;4404421;32;33591;-87
2023/12/27 07:14:33;;;;;;;;;;;;;;;6.36;65.16;99903.19;4405831;32;32935;-88
2023/12/27 07:17:00;;;;;;;;;;;;;;;6.49;64.61;99895.16;4405490;32;33776;-88
2023/12/27 07:19:27;;;;;;;;;;;;;;;6.62;64.14;99902.53;4406348;32;34190;-88
2023/12/27 07:21:54;;;;;;;;;;;;;;;6.95;63.09;99908.16;4403187;32;33005;-87
2023/12/27 07:24:22;;;;;;;;;;;;;;;6.86;63.28;99914.66;4404522;32;33299;-88
2023/12/27 07:26:50;;;;;;;;;;;;;;;6.91;62.85;99923.47;4404655;32;33876;-88
2023/12/27 07:29:17;;;;;;;;;;;;;;;6.99;62.89;99934.94;4402628;32;34033;-88
2023/12/27 07:31:44;;;;;;;;;;;;;;;7.00;62.81;99931.53;4405408;32;34552;-89
2023/12/27 07:34:12;;;;;;;;;;;;;;;6.89;63.22;99932.81;4397482;32;32530;-88
2023/12/27 07:36:40;;;;;;;;;;;;;;;7.01;63.25;99928.16;4404435;32;34931;-88
2023/12/27 07:39:09;;;;;;;;;;;;;;;7.11;63.22;99935.41;4394213;32;34215;-88
2023/12/27 07:41:36;;;;;;;;;;;;;;;6.86;64.38;99943.00;4401357;32;34079;-88
2023/12/27 07:44:04;;;;;;;;;;;;;;;7.11;63.59;99942.28;4404704;32;33126;-89
2023/12/27 07:46:31;;;;;;;;;;;;;;;7.01;63.98;99951.38;4405357;32;33773;-89
2023/12/27 07:48:58;;;;;;;;;;;;;;;7.14;63.43;99956.16;4405113;32;35021;-89
2023/12/27 07:51:26;;;;;;;;;;;;;;;7.16;63.72;99962.28;4401441;32;34899;-89
2023/12/27 07:53:54;;;;;;;;;;;;;;;7.11;63.92;99963.78;4400278;32;33237;-88
2023/12/27 07:56:23;;;;;;;;;;;;;;;7.34;63.42;99962.09;4403681;32;34201;-89
2023/12/27 07:58:50;;;;;;;;;;;;;;;7.17;64.47;99965.72;4418225;32;34755;-90
2023/12/27 08:01:17;;;;;;;;;;;;;;;7.39;64.05;99977.75;4416537;32;34142;-88
2023/12/27 08:03:51;;;;;;;;;;;;;;;7.28;64.39;99982.50;4402531;32;33231;-88
2023/12/27 08:06:18;;;;;;;;;;;;;;;7.44;63.99;99987.44;4399560;32;34535;-88
2023/12/27 08:08:46;;;;;;;;;;;;;;;7.52;64.06;99982.56;4399017;32;34103;-89
2023/12/27 08:11:13;;;;;;;;;;;;;;;7.56;63.88;99994.75;4390468;32;35043;-89
2023/12/27 08:13:40;;;;;;;;;;;;;;;7.03;65.99;99993.53;4405051;32;33454;-90
2023/12/27 08:16:07;;;;;;;;;;;;;;;7.42;64.96;99994.22;4404790;32;33251;-89
2023/12/27 08:18:35;;;;;;;;;;;;;;;7.56;64.99;99989.59;4405543;32;33996;-89
2023/12/27 08:21:04;;;;;;;;;;;;;;;7.77;64.73;99985.25;4405260;32;33769;-89
2023/12/27 08:23:33;;;;;;;;;;;;;;;7.47;65.61;99990.12;4402444;32;33093;-88
2023/12/27 08:26:00;;;;;;;;;;;;;;;7.83;64.02;99983.69;4400406;32;34953;-88
2023/12/27 08:28:27;;;;;;;;;;;;;;;7.39;65.43;99988.97;4404953;32;33596;-88
2023/12/27 08:30:55;;;;;;;;;;;;;;;7.73;64.43;100001.44;4404598;32;34791;-88
2023/12/27 08:33:22;;;;;;;;;;;;;;;8.09;63.21;99992.38;4404461;32;33411;-87
2023/12/27 08:35:50;;;;;;;;;;;;;;;8.06;63.12;100008.66;4421541;32;33737;-88
2023/12/27 08:38:17;;;;;;;;;;;;;;;8.12;63.35;100021.78;4402932;32;35117;-89
2023/12/27 08:40:45;;;;;;;;;;;;;;;8.27;63.03;100026.63;4404196;32;34211;-88
2023/12/27 08:43:14;;;;;;;;;;;;;;;8.24;62.82;100027.37;4403043;32;33210;-89
2023/12/27 08:45:41;;;;;;;;;;;;;;;8.14;63.35;100022.72;4404441;32;34967;-90
2023/12/27 08:48:08;;;;;;;;;;;;;;;8.08;63.71;100031.97;4403611;32;35164;-90
2023/12/27 08:50:36;;;;;;;;;;;;;;;8.09;63.74;100036.28;4404819;32;34089;-87
2023/12/27 08:53:04;;;;;;;;;;;;;;;8.23;63.18;100040.25;4395521;32;33384;-89
2023/12/27 08:55:32;;;;;;;;;;;;;;;8.38;62.84;100040.84;4401714;32;33628;-88
2023/12/27 08:57:59;;;;;;;;;;;;;;;8.55;62.54;100036.25;4397135;32;34939;-87
2023/12/27 09:00:26;;;;;;;;;;;;;;;9.06;61.23;100032.81;4404337;32;34282;-88
2023/12/27 09:02:54;;;;;;;;;;;;;;;8.86;61.86;100048.50;4406334;32;33123;-87
2023/12/27 09:05:22;;;;;;;;;;;;;;;8.55;62.69;100049.19;4403345;32;34956;-87
2023/12/27 09:07:49;;;;;;;;;;;;;;;9.01;61.68;100066.25;4402731;32;34008;-88
2023/12/27 09:10:17;;;;;;;;;;;;;;;8.85;62.36;100059.69;4405838;32;34820;-88
2023/12/27 09:12:44;;;;;;;;;;;;;;;9.05;61.02;100056.88;4403768;32;34128;-90
2023/12/27 09:15:14;;;;;;;;;;;;;;;9.00;60.58;100044.69;4403613;32;34140;-87
2023/12/27 09:17:41;;;;;;;;;;;;;;;9.04;60.43;100053.44;4396617;32;33509;-86
2023/12/27 09:20:09;;;;;;;;;;;;;;;8.90;61.07;100068.50;4398197;32;34919;-86
2023/12/27 09:22:36;;;;;;;;;;;;;;;9.04;60.17;100050.84;4404090;32;32796;-86
2023/12/27 09:25:05;;;;;;;;;;;;;;;8.88;60.81;100054.63;4405477;32;32484;-87
2023/12/27 09:27:32;;;;;;;;;;;;;;;9.39;60.03;100057.16;4405617;32;35375;-87
2023/12/27 09:30:03;;;;;;;;;;;;;;;9.55;59.45;100061.13;4397225;32;33765;-90
2023/12/27 09:32:30;;;;;;;;;;;;;;;9.59;58.80;100067.28;4404229;32;31865;-87
2023/12/27 09:34:58;;;;;;;;;;;;;;;9.54;58.17;100069.69;4401112;32;33849;-90
2023/12/27 09:37:25;;;;;;;;;;;;;;;9.48;59.16;100074.69;4404724;32;33560;-89
2023/12/27 09:39:52;;;;;;;;;;;;;;;9.64;59.04;100082.09;4405783;32;33797;-88
2023/12/27 09:42:19;;;;;;;;;;;;;;;9.11;60.58;100078.66;4404938;32;33759;-89
2023/12/27 09:44:47;;;;;;;;;;;;;;;9.63;58.71;100070.00;4400586;32;34662;-91
2023/12/27 09:47:14;;;;;;;;;;;;;;;9.75;58.62;100072.06;4415101;32;34777;-87
2023/12/27 09:49:41;;;;;;;;;;;;;;;9.83;58.08;100068.00;4403302;32;34288;-92
2023/12/27 09:52:09;;;;;;;;;;;;;;;9.63;58.55;100070.00;4403886;32;33683;-88
2023/12/27 09:54:36;;;;;;;;;;;;;;;9.86;57.18;100067.22;4402925;32;34146;-88
2023/12/27 09:57:04;;;;;;;;;;;;;;;10.26;56.21;100071.88;4402330;32;34092;-89
2023/12/27 09:59:38;;;;;;;;;;;;;;;9.77;57.19;100057.44;4394125;32;34266;-87
2023/12/27 10:02:08;;;;;;;;;;;;;;;9.98;55.73;100071.06;4402463;32;34173;-86
2023/12/27 10:04:38;;;;;;;;;;;;;;;9.80;56.48;100067.03;4415986;32;32495;-89
2023/12/27 10:07:05;;;;;;;;;;;;;;;10.13;55.81;100067.16;4403594;32;34437;-87
2023/12/27 10:09:33;;;;;;;;;;;;;;;9.88;56.68;100062.97;4406221;32;34669;-87
2023/12/27 10:12:01;;;;;;;;;;;;;;;9.91;56.78;100065.66;4418020;32;34131;-89
2023/12/27 10:14:28;;;;;;;;;;;;;;;9.50;57.46;100052.31;4398121;32;34114;-87
2023/12/27 10:16:56;;;;;;;;;;;;;;;9.54;57.20;100056.75;4405948;32;34339;-86
2023/12/27 10:19:42;;;;;;;;;;;;;;;9.58;57.72;100053.41;4413256;32;34202;-87
2023/12/27 10:22:10;;;;;;;;;;;;;;;9.39;58.09;100059.72;4411336;32;34040;-87
2023/12/27 10:24:40;;;;;;;;;;;;;;;9.57;57.36;100058.56;4405054;32;34318;-86
2023/12/27 10:27:08;;;;;;;;;;;;;;;9.66;57.84;100054.56;4417115;32;35173;-87
2023/12/27 10:29:35;;;;;;;;;;;;;;;10.15;56.12;100058.59;4416465;32;33716;-87
2023/12/27 10:32:03;;;;;;;;;;;;;;;9.71;57.14;100057.28;4405948;32;33149;-88
2023/12/27 10:34:31;;;;;;;;;;;;;;;9.82;57.14;100055.03;4417168;32;34354;-88
2023/12/27 10:36:59;;;;;;;;;;;;;;;9.61;57.89;100056.09;4405876;32;34492;-88
2023/12/27 10:39:26;;;;;;;;;;;;;;;9.49;57.59;100053.16;4416789;32;34146;-89
2023/12/27 10:41:54;;;;;;;;;;;;;;;9.53;56.75;100056.72;4397969;32;33195;-88
2023/12/27 10:44:21;;;;;;;;;;;;;;;9.58;56.99;100058.59;4416275;32;34645;-85
2023/12/27 10:46:49;;;;;;;;;;;;;;;9.45;57.35;100059.94;4411907;32;35111;-86
2023/12/27 10:49:16;;;;;;;;;;;;;;;9.90;56.61;100063.91;4406868;32;33900;-89
2023/12/27 10:51:44;;;;;;;;;;;;;;;10.03;54.72;100065.13;4417031;32;32682;-88
2023/12/27 10:54:11;;;;;;;;;;;;;;;9.46;56.64;100072.03;4405731;32;34909;-89
2023/12/27 10:56:39;;;;;;;;;;;;;;;9.42;56.31;100065.00;4412902;32;33687;-89
2023/12/27 10:59:07;;;;;;;;;;;;;;;9.33;56.52;100064.72;4396173;32;33618;-88
2023/12/27 11:01:34;;;;;;;;;;;;;;;9.37;55.38;100061.41;4413439;32;32955;-90
2023/12/27 11:04:09;;;;;;;;;;;;;;;9.58;55.48;100056.00;4398358;32;33960;-88
2023/12/27 11:06:37;;;;;;;;;;;;;;;9.67;54.68;100051.13;4395374;32;34136;-87
2023/12/27 11:09:07;;;;;;;;;;;;;;;9.89;54.02;100047.47;4395259;32;34456;-89
2023/12/27 11:11:38;;;;;;;;;;;;;;;9.71;53.86;100047.81;4398018;32;33993;-87
2023/12/27 11:14:10;;;;;;;;;;;;;;;9.34;55.00;100039.72;4416100;32;32630;-89
2023/12/27 11:16:39;;;;;;;;;;;;;;;9.87;54.20;100028.41;4405039;32;34256;-88
2023/12/27 11:19:07;;;;;;;;;;;;;;;9.61;55.51;100026.75;4412062;32;34166;-90
2023/12/27 11:21:34;;;;;;;;;;;;;;;9.77;54.60;100025.50;4397901;32;33296;-89
2023/12/27 11:24:05;;;;;;;;;;;;;;;9.89;54.00;100031.94;4394038;32;34201;-88
2023/12/27 11:26:36;;;;;;;;;;;;;;;10.15;53.12;100016.25;4407429;32;33910;-91
2023/12/27 11:29:10;;;;;;;;;;;;;;;9.87;54.33;100006.81;4412325;32;33730;-87
2023/12/27 11:31:38;;;;;;;;;;;;;;;9.73;54.31;100015.03;4407177;32;33316;-86
2023/12/27 11:34:05;;;;;;;;;;;;;;;9.91;54.25;100017.31;4400630;32;33922;-88
2023/12/27 11:36:33;;;;;;;;;;;;;;;10.20;53.44;100015.56;4399732;32;35193;-86
2023/12/27 11:39:15;;;;;;;;;;;;;;;10.31;52.65;100010.69;4408728;32;34830;-86
2023/12/27 11:41:42;;;;;;;;;;;;;;;10.24;52.60;100004.44;4414962;32;33995;-86
2023/12/27 11:44:10;;;;;;;;;;;;;;;10.11;52.57;100007.50;4403746;32;34242;-88
2023/12/27 11:46:37;;;;;;;;;;;;;;;10.22;52.38;100005.22;4402479;32;35575;-89
2023/12/27 11:49:04;;;;;;;;;;;;;;;9.78;54.13;100012.63;4395668;32;33326;-85
2023/12/27 11:51:36;;;;;;;;;;;;;;;9.93;53.31;100007.00;4405451;32;33014;-87
2023/12/27 11:54:04;;;;;;;;;;;;;;;9.88;53.21;100003.37;4397582;32;34875;-83
2023/12/27 11:56:32;;;;;;;;;;;;;;;10.37;51.65;99991.81;4403426;32;34372;-85
2023/12/27 11:59:08;;;;;;;;;;;;;;;10.26;52.29;99990.66;4414328;32;34796;-88
2023/12/27 12:01:36;;;;;;;;;;;;;;;10.02;52.52;99981.34;4399962;32;33386;-88
2023/12/27 12:04:08;;;;;;;;;;;;;;;10.07;52.40;99984.94;4402148;32;35000;-88
2023/12/27 12:06:39;;;;;;;;;;;;;;;9.50;52.46;99985.00;4395970;32;35205;-89
2023/12/27 12:09:07;;;;;;;;;;;;;;;9.74;51.69;99974.53;4405747;32;34034;-90
2023/12/27 12:11:35;;;;;;;;;;;;;;;10.23;50.21;99981.94;4397878;32;34202;-88
2023/12/27 12:14:03;;;;;;;;;;;;;;;9.68;52.54;99985.56;4397017;32;32734;-88
2023/12/27 12:16:32;;;;;;;;;;;;;;;9.97;51.63;99985.53;4402540;32;34281;-86
2023/12/27 12:18:59;;;;;;;;;;;;;;;9.90;51.96;99991.38;4402294;32;33539;-86
2023/12/27 12:21:28;;;;;;;;;;;;;;;10.33;50.73;99997.78;4411286;32;34159;-88
2023/12/27 12:23:55;;;;;;;;;;;;;;;9.93;52.62;99992.34;4416598;32;33587;-90
2023/12/27 12:26:23;;;;;;;;;;;;;;;10.37;50.58;99992.69;4411163;32;35393;-91
2023/12/27 12:28:53;;;;;;;;;;;;;;;10.28;52.22;99994.19;4402609;32;33949;-86
2023/12/27 12:31:21;;;;;;;;;;;;;;;10.39;50.64;99987.56;4409166;32;32401;-87
2023/12/27 12:33:48;;;;;;;;;;;;;;;10.26;51.77;99990.66;4399616;32;34214;-88
2023/12/27 12:36:16;;;;;;;;;;;;;;;10.74;49.66;99979.81;4396062;32;35079;-88
2023/12/27 12:38:44;;;;;;;;;;;;;;;10.37;51.34;99984.06;4399326;32;34231;-89
2023/12/27 12:41:11;;;;;;;;;;;;;;;10.39;50.57;99991.03;4401205;32;33513;-88
2023/12/27 12:43:38;;;;;;;;;;;;;;;10.13;51.12;99994.59;4409144;32;34055;-89
2023/12/27 12:46:07;;;;;;;;;;;;;;;10.47;50.56;99992.13;4399313;32;34142;-87
2023/12/27 12:48:36;;;;;;;;;;;;;;;10.69;50.44;99992.69;4408849;32;34427;-86
2023/12/27 12:51:15;;;;;;;;;;;;;;;10.59;50.78;99991.56;4399770;32;32700;-87
2023/12/27 12:53:43;;;;;;;;;;;;;;;10.51;50.24;99993.06;4401950;32;33800;-86
2023/12/27 12:56:11;;;;;;;;;;;;;;;10.35;50.63;99984.03;4401331;32;34067;-87